sensor_id;sensor_type;location;lat;lon;timestamp;P1;durP1;ratioP1;P2;durP2;ratioP2
69678;SDS011;56915;52.046;4.854;2022-08-14T00:01:30;5.60;;;4.65;;
69678;SDS011;56915;52.046;4.854;2022-08-14T00:03:57;7.03;;;4.78;;
69678;SDS011;56915;52.046;4.854;2022-08-14T00:06:26;6.03;;;5.28;;
69678;SDS011;56915;52.046;4.854;2022-08-14T00:08:54;5.63;;;4.60;;
69678;SDS011;56915;52.046;4.854;2022-08-14T00:11:24;5.47;;;4.83;;
69678;SDS011;56915;52.046;4.854;2022-08-14T00:13:56;5.82;;;4.90;;
69678;SDS011;56915;52.046;4.854;2022-08-14T00:16:23;6.03;;;5.07;;
69678;SDS011;56915;52.046;4.854;2022-08-14T00:19:09;5.43;;;4.88;;
69678;SDS011;56915;52.046;4.854;2022-08-14T00:21:45;6.97;;;4.85;;
69678;SDS011;56915;52.046;4.854;2022-08-14T00:24:17;5.70;;;4.80;;
69678;SDS011;56915;52.046;4.854;2022-08-14T00:26:54;6.57;;;4.85;;
69678;SDS011;56915;52.046;4.854;2022-08-14T00:29:22;5.85;;;5.22;;
69678;SDS011;56915;52.046;4.854;2022-08-14T00:31:51;6.35;;;5.30;;
69678;SDS011;56915;52.046;4.854;2022-08-14T00:34:21;6.72;;;5.13;;
69678;SDS011;56915;52.046;4.854;2022-08-14T00:37:09;6.07;;;4.70;;
69678;SDS011;56915;52.046;4.854;2022-08-14T00:39:37;6.50;;;5.00;;
69678;SDS011;56915;52.046;4.854;2022-08-14T00:42:05;6.30;;;5.10;;
69678;SDS011;56915;52.046;4.854;2022-08-14T00:44:46;6.95;;;5.20;;
69678;SDS011;56915;52.046;4.854;2022-08-14T00:47:14;6.28;;;5.20;;
69678;SDS011;56915;52.046;4.854;2022-08-14T00:49:42;7.47;;;4.83;;
69678;SDS011;56915;52.046;4.854;2022-08-14T00:52:11;7.35;;;4.55;;
69678;SDS011;56915;52.046;4.854;2022-08-14T00:54:43;7.13;;;5.20;;
69678;SDS011;56915;52.046;4.854;2022-08-14T00:57:12;5.97;;;4.90;;
69678;SDS011;56915;52.046;4.854;2022-08-14T00:59:38;9.15;;;5.38;;
69678;SDS011;56915;52.046;4.854;2022-08-14T01:02:06;6.27;;;5.13;;
69678;SDS011;56915;52.046;4.854;2022-08-14T01:04:34;8.93;;;5.57;;
69678;SDS011;56915;52.046;4.854;2022-08-14T01:07:20;7.03;;;5.35;;
69678;SDS011;56915;52.046;4.854;2022-08-14T01:09:52;6.93;;;5.20;;
69678;SDS011;56915;52.046;4.854;2022-08-14T01:12:23;7.53;;;5.55;;
69678;SDS011;56915;52.046;4.854;2022-08-14T01:14:56;6.83;;;5.80;;
69678;SDS011;56915;52.046;4.854;2022-08-14T01:17:25;9.15;;;5.40;;
69678;SDS011;56915;52.046;4.854;2022-08-14T01:20:15;7.45;;;5.60;;
69678;SDS011;56915;52.046;4.854;2022-08-14T01:23:05;9.73;;;5.55;;
69678;SDS011;56915;52.046;4.854;2022-08-14T01:25:44;9.88;;;5.63;;
69678;SDS011;56915;52.046;4.854;2022-08-14T01:28:12;7.10;;;5.60;;
69678;SDS011;56915;52.046;4.854;2022-08-14T01:30:59;8.38;;;5.70;;
69678;SDS011;56915;52.046;4.854;2022-08-14T01:33:27;9.27;;;5.40;;
69678;SDS011;56915;52.046;4.854;2022-08-14T01:35:55;8.88;;;6.03;;
69678;SDS011;56915;52.046;4.854;2022-08-14T01:38:32;6.05;;;5.30;;
69678;SDS011;56915;52.046;4.854;2022-08-14T01:41:07;6.00;;;5.17;;
69678;SDS011;56915;52.046;4.854;2022-08-14T01:46:23;7.50;;;5.18;;
69678;SDS011;56915;52.046;4.854;2022-08-14T01:48:58;7.20;;;5.70;;
69678;SDS011;56915;52.046;4.854;2022-08-14T01:51:27;7.03;;;5.75;;
69678;SDS011;56915;52.046;4.854;2022-08-14T01:53:56;11.73;;;6.00;;
69678;SDS011;56915;52.046;4.854;2022-08-14T01:56:28;7.57;;;5.80;;
69678;SDS011;56915;52.046;4.854;2022-08-14T01:59:08;8.48;;;6.38;;
69678;SDS011;56915;52.046;4.854;2022-08-14T02:01:48;9.07;;;6.15;;
69678;SDS011;56915;52.046;4.854;2022-08-14T02:04:25;11.50;;;6.38;;
69678;SDS011;56915;52.046;4.854;2022-08-14T02:07:16;8.37;;;6.40;;
69678;SDS011;56915;52.046;4.854;2022-08-14T02:10:03;8.35;;;6.50;;
69678;SDS011;56915;52.046;4.854;2022-08-14T02:12:32;8.68;;;6.70;;
69678;SDS011;56915;52.046;4.854;2022-08-14T02:14:59;9.52;;;6.53;;
69678;SDS011;56915;52.046;4.854;2022-08-14T02:17:27;9.63;;;6.10;;
69678;SDS011;56915;52.046;4.854;2022-08-14T02:19:56;8.70;;;6.53;;
69678;SDS011;56915;52.046;4.854;2022-08-14T02:22:23;9.77;;;6.53;;
69678;SDS011;56915;52.046;4.854;2022-08-14T02:24:59;9.00;;;6.50;;
69678;SDS011;56915;52.046;4.854;2022-08-14T02:27:27;9.05;;;6.90;;
69678;SDS011;56915;52.046;4.854;2022-08-14T02:30:15;9.57;;;6.32;;
69678;SDS011;56915;52.046;4.854;2022-08-14T02:32:42;8.70;;;6.57;;
69678;SDS011;56915;52.046;4.854;2022-08-14T02:35:11;10.35;;;6.75;;
69678;SDS011;56915;52.046;4.854;2022-08-14T02:37:45;7.88;;;6.40;;
69678;SDS011;56915;52.046;4.854;2022-08-14T02:40:18;9.10;;;5.90;;
69678;SDS011;56915;52.046;4.854;2022-08-14T02:42:58;9.70;;;6.40;;
69678;SDS011;56915;52.046;4.854;2022-08-14T02:45:28;8.93;;;6.60;;
69678;SDS011;56915;52.046;4.854;2022-08-14T02:48:10;13.85;;;6.90;;
69678;SDS011;56915;52.046;4.854;2022-08-14T02:50:58;8.80;;;6.75;;
69678;SDS011;56915;52.046;4.854;2022-08-14T02:53:28;8.85;;;6.80;;
69678;SDS011;56915;52.046;4.854;2022-08-14T02:55:57;8.77;;;6.78;;
69678;SDS011;56915;52.046;4.854;2022-08-14T02:58:37;9.10;;;7.13;;
69678;SDS011;56915;52.046;4.854;2022-08-14T03:01:07;8.55;;;6.57;;
69678;SDS011;56915;52.046;4.854;2022-08-14T03:03:35;9.30;;;6.95;;
69678;SDS011;56915;52.046;4.854;2022-08-14T03:06:04;8.68;;;6.50;;
69678;SDS011;56915;52.046;4.854;2022-08-14T03:08:35;9.93;;;6.55;;
69678;SDS011;56915;52.046;4.854;2022-08-14T03:11:04;9.37;;;6.80;;
69678;SDS011;56915;52.046;4.854;2022-08-14T03:13:39;9.60;;;6.90;;
69678;SDS011;56915;52.046;4.854;2022-08-14T03:16:09;9.13;;;7.00;;
69678;SDS011;56915;52.046;4.854;2022-08-14T03:18:53;8.60;;;6.65;;
69678;SDS011;56915;52.046;4.854;2022-08-14T03:21:22;10.48;;;7.05;;
69678;SDS011;56915;52.046;4.854;2022-08-14T03:23:50;9.90;;;7.07;;
69678;SDS011;56915;52.046;4.854;2022-08-14T03:26:47;9.48;;;6.57;;
69678;SDS011;56915;52.046;4.854;2022-08-14T03:29:22;9.32;;;6.70;;
69678;SDS011;56915;52.046;4.854;2022-08-14T03:31:51;9.85;;;7.13;;
69678;SDS011;56915;52.046;4.854;2022-08-14T03:34:19;8.95;;;6.95;;
69678;SDS011;56915;52.046;4.854;2022-08-14T03:37:08;11.40;;;7.57;;
69678;SDS011;56915;52.046;4.854;2022-08-14T03:39:57;12.25;;;7.80;;
69678;SDS011;56915;52.046;4.854;2022-08-14T03:42:25;10.35;;;8.00;;
69678;SDS011;56915;52.046;4.854;2022-08-14T03:45:01;10.80;;;8.02;;
69678;SDS011;56915;52.046;4.854;2022-08-14T03:47:48;15.07;;;7.88;;
69678;SDS011;56915;52.046;4.854;2022-08-14T03:50:27;11.87;;;7.70;;
69678;SDS011;56915;52.046;4.854;2022-08-14T03:53:00;13.02;;;8.02;;
69678;SDS011;56915;52.046;4.854;2022-08-14T03:55:29;12.27;;;8.27;;
69678;SDS011;56915;52.046;4.854;2022-08-14T03:57:56;11.65;;;8.32;;
69678;SDS011;56915;52.046;4.854;2022-08-14T04:00:25;12.25;;;8.40;;
69678;SDS011;56915;52.046;4.854;2022-08-14T04:03:10;11.20;;;8.10;;
69678;SDS011;56915;52.046;4.854;2022-08-14T04:05:43;11.70;;;8.15;;
69678;SDS011;56915;52.046;4.854;2022-08-14T04:08:14;11.68;;;8.43;;
69678;SDS011;56915;52.046;4.854;2022-08-14T04:10:56;12.40;;;8.80;;
69678;SDS011;56915;52.046;4.854;2022-08-14T04:13:26;13.35;;;9.32;;
69678;SDS011;56915;52.046;4.854;2022-08-14T04:15:59;12.13;;;8.17;;
69678;SDS011;56915;52.046;4.854;2022-08-14T04:18:32;13.55;;;8.88;;
69678;SDS011;56915;52.046;4.854;2022-08-14T04:20:59;15.40;;;8.70;;
69678;SDS011;56915;52.046;4.854;2022-08-14T04:23:26;12.40;;;8.90;;
69678;SDS011;56915;52.046;4.854;2022-08-14T04:26:02;12.80;;;8.77;;
69678;SDS011;56915;52.046;4.854;2022-08-14T04:28:34;12.30;;;8.27;;
69678;SDS011;56915;52.046;4.854;2022-08-14T04:31:22;14.05;;;9.02;;
69678;SDS011;56915;52.046;4.854;2022-08-14T04:34:09;13.25;;;8.65;;
69678;SDS011;56915;52.046;4.854;2022-08-14T04:36:46;12.23;;;8.45;;
69678;SDS011;56915;52.046;4.854;2022-08-14T04:39:33;11.90;;;8.45;;
69678;SDS011;56915;52.046;4.854;2022-08-14T04:42:22;15.23;;;8.07;;
69678;SDS011;56915;52.046;4.854;2022-08-14T04:45:16;14.52;;;8.25;;
69678;SDS011;56915;52.046;4.854;2022-08-14T04:47:49;13.07;;;8.50;;
69678;SDS011;56915;52.046;4.854;2022-08-14T04:50:42;12.77;;;8.32;;
69678;SDS011;56915;52.046;4.854;2022-08-14T04:53:20;12.45;;;8.70;;
69678;SDS011;56915;52.046;4.854;2022-08-14T04:56:00;12.87;;;9.10;;
69678;SDS011;56915;52.046;4.854;2022-08-14T04:58:29;14.68;;;9.15;;
69678;SDS011;56915;52.046;4.854;2022-08-14T05:00:59;17.05;;;9.32;;
69678;SDS011;56915;52.046;4.854;2022-08-14T05:03:30;12.85;;;8.95;;
69678;SDS011;56915;52.046;4.854;2022-08-14T05:05:59;12.77;;;8.88;;
69678;SDS011;56915;52.046;4.854;2022-08-14T05:08:29;11.87;;;8.60;;
69678;SDS011;56915;52.046;4.854;2022-08-14T05:11:16;12.88;;;8.10;;
69678;SDS011;56915;52.046;4.854;2022-08-14T05:13:45;13.40;;;8.65;;
69678;SDS011;56915;52.046;4.854;2022-08-14T05:16:32;14.02;;;8.40;;
69678;SDS011;56915;52.046;4.854;2022-08-14T05:18:58;11.90;;;8.38;;
69678;SDS011;56915;52.046;4.854;2022-08-14T05:21:45;12.33;;;8.50;;
69678;SDS011;56915;52.046;4.854;2022-08-14T05:24:32;13.15;;;8.50;;
69678;SDS011;56915;52.046;4.854;2022-08-14T05:26:59;13.95;;;8.73;;
69678;SDS011;56915;52.046;4.854;2022-08-14T05:29:28;13.57;;;8.65;;
69678;SDS011;56915;52.046;4.854;2022-08-14T05:31:57;13.20;;;8.60;;
69678;SDS011;56915;52.046;4.854;2022-08-14T05:34:27;12.70;;;8.53;;
69678;SDS011;56915;52.046;4.854;2022-08-14T05:36:57;10.98;;;8.48;;
69678;SDS011;56915;52.046;4.854;2022-08-14T05:39:29;11.88;;;8.57;;
69678;SDS011;56915;52.046;4.854;2022-08-14T05:41:57;10.93;;;7.70;;
69678;SDS011;56915;52.046;4.854;2022-08-14T05:44:26;12.93;;;9.52;;
69678;SDS011;56915;52.046;4.854;2022-08-14T05:46:56;12.17;;;8.73;;
69678;SDS011;56915;52.046;4.854;2022-08-14T05:49:24;12.48;;;8.70;;
69678;SDS011;56915;52.046;4.854;2022-08-14T05:51:59;12.32;;;8.73;;
69678;SDS011;56915;52.046;4.854;2022-08-14T05:54:27;12.18;;;8.80;;
69678;SDS011;56915;52.046;4.854;2022-08-14T05:57:01;17.52;;;9.00;;
69678;SDS011;56915;52.046;4.854;2022-08-14T05:59:29;12.37;;;8.70;;
69678;SDS011;56915;52.046;4.854;2022-08-14T06:02:05;12.82;;;8.95;;
69678;SDS011;56915;52.046;4.854;2022-08-14T06:04:35;14.73;;;9.30;;
69678;SDS011;56915;52.046;4.854;2022-08-14T06:07:03;12.80;;;9.10;;
69678;SDS011;56915;52.046;4.854;2022-08-14T06:09:31;11.90;;;8.85;;
69678;SDS011;56915;52.046;4.854;2022-08-14T06:12:08;12.77;;;8.70;;
69678;SDS011;56915;52.046;4.854;2022-08-14T06:14:37;13.80;;;8.43;;
69678;SDS011;56915;52.046;4.854;2022-08-14T06:17:04;12.23;;;8.95;;
69678;SDS011;56915;52.046;4.854;2022-08-14T06:19:32;11.52;;;7.85;;
69678;SDS011;56915;52.046;4.854;2022-08-14T06:21:59;12.25;;;8.30;;
69678;SDS011;56915;52.046;4.854;2022-08-14T06:24:27;12.17;;;8.70;;
69678;SDS011;56915;52.046;4.854;2022-08-14T06:27:00;13.18;;;8.52;;
69678;SDS011;56915;52.046;4.854;2022-08-14T06:29:30;11.65;;;8.57;;
69678;SDS011;56915;52.046;4.854;2022-08-14T06:32:00;12.70;;;8.43;;
69678;SDS011;56915;52.046;4.854;2022-08-14T06:34:49;12.40;;;8.40;;
69678;SDS011;56915;52.046;4.854;2022-08-14T06:37:48;12.87;;;8.67;;
69678;SDS011;56915;52.046;4.854;2022-08-14T06:40:16;11.98;;;8.07;;
69678;SDS011;56915;52.046;4.854;2022-08-14T06:43:00;11.88;;;8.27;;
69678;SDS011;56915;52.046;4.854;2022-08-14T06:45:32;11.13;;;8.10;;
69678;SDS011;56915;52.046;4.854;2022-08-14T06:48:01;10.85;;;7.97;;
69678;SDS011;56915;52.046;4.854;2022-08-14T06:50:37;13.90;;;9.13;;
69678;SDS011;56915;52.046;4.854;2022-08-14T06:53:04;11.70;;;8.18;;
69678;SDS011;56915;52.046;4.854;2022-08-14T06:55:32;13.52;;;8.35;;
69678;SDS011;56915;52.046;4.854;2022-08-14T06:58:02;12.52;;;8.18;;
69678;SDS011;56915;52.046;4.854;2022-08-14T07:00:33;10.25;;;8.15;;
69678;SDS011;56915;52.046;4.854;2022-08-14T07:03:04;11.40;;;8.23;;
69678;SDS011;56915;52.046;4.854;2022-08-14T07:05:51;11.07;;;8.35;;
69678;SDS011;56915;52.046;4.854;2022-08-14T07:08:24;10.60;;;8.32;;
69678;SDS011;56915;52.046;4.854;2022-08-14T07:10:57;10.68;;;7.95;;
69678;SDS011;56915;52.046;4.854;2022-08-14T07:13:25;9.20;;;7.30;;
69678;SDS011;56915;52.046;4.854;2022-08-14T07:15:56;10.90;;;7.60;;
69678;SDS011;56915;52.046;4.854;2022-08-14T07:18:31;10.05;;;7.65;;
69678;SDS011;56915;52.046;4.854;2022-08-14T07:20:59;9.20;;;7.13;;
69678;SDS011;56915;52.046;4.854;2022-08-14T07:23:28;10.07;;;7.13;;
69678;SDS011;56915;52.046;4.854;2022-08-14T07:25:56;8.75;;;6.97;;
69678;SDS011;56915;52.046;4.854;2022-08-14T07:28:28;11.30;;;6.60;;
69678;SDS011;56915;52.046;4.854;2022-08-14T07:30:59;8.88;;;7.20;;
69678;SDS011;56915;52.046;4.854;2022-08-14T07:33:41;9.20;;;7.03;;
69678;SDS011;56915;52.046;4.854;2022-08-14T07:36:20;8.57;;;6.90;;
69678;SDS011;56915;52.046;4.854;2022-08-14T07:38:55;8.98;;;6.70;;
69678;SDS011;56915;52.046;4.854;2022-08-14T07:41:28;8.80;;;6.73;;
69678;SDS011;56915;52.046;4.854;2022-08-14T07:43:59;7.32;;;6.43;;
69678;SDS011;56915;52.046;4.854;2022-08-14T07:46:47;12.25;;;7.00;;
69678;SDS011;56915;52.046;4.854;2022-08-14T07:49:14;10.15;;;6.90;;
69678;SDS011;56915;52.046;4.854;2022-08-14T07:51:43;9.73;;;6.72;;
69678;SDS011;56915;52.046;4.854;2022-08-14T07:54:14;8.10;;;6.70;;
69678;SDS011;56915;52.046;4.854;2022-08-14T07:56:56;8.45;;;6.85;;
69678;SDS011;56915;52.046;4.854;2022-08-14T07:59:37;10.05;;;6.80;;
69678;SDS011;56915;52.046;4.854;2022-08-14T08:02:08;10.13;;;6.93;;
69678;SDS011;56915;52.046;4.854;2022-08-14T08:04:46;15.00;;;7.30;;
69678;SDS011;56915;52.046;4.854;2022-08-14T08:07:20;8.27;;;6.50;;
69678;SDS011;56915;52.046;4.854;2022-08-14T08:09:55;8.95;;;7.00;;
69678;SDS011;56915;52.046;4.854;2022-08-14T08:12:25;8.10;;;6.22;;
69678;SDS011;56915;52.046;4.854;2022-08-14T08:14:57;8.32;;;6.63;;
69678;SDS011;56915;52.046;4.854;2022-08-14T08:17:31;11.13;;;6.70;;
69678;SDS011;56915;52.046;4.854;2022-08-14T08:20:05;8.13;;;6.90;;
69678;SDS011;56915;52.046;4.854;2022-08-14T08:22:38;8.52;;;6.57;;
69678;SDS011;56915;52.046;4.854;2022-08-14T08:25:14;9.05;;;6.65;;
69678;SDS011;56915;52.046;4.854;2022-08-14T08:30:58;8.60;;;6.35;;
69678;SDS011;56915;52.046;4.854;2022-08-14T08:33:30;7.83;;;6.27;;
69678;SDS011;56915;52.046;4.854;2022-08-14T08:36:03;7.32;;;6.32;;
69678;SDS011;56915;52.046;4.854;2022-08-14T08:38:33;8.00;;;6.63;;
69678;SDS011;56915;52.046;4.854;2022-08-14T08:41:20;8.38;;;6.30;;
69678;SDS011;56915;52.046;4.854;2022-08-14T08:43:46;9.65;;;7.32;;
69678;SDS011;56915;52.046;4.854;2022-08-14T08:46:18;7.83;;;6.40;;
69678;SDS011;56915;52.046;4.854;2022-08-14T08:48:53;8.43;;;6.53;;
69678;SDS011;56915;52.046;4.854;2022-08-14T08:51:31;8.68;;;6.43;;
69678;SDS011;56915;52.046;4.854;2022-08-14T08:54:10;8.13;;;6.88;;
69678;SDS011;56915;52.046;4.854;2022-08-14T08:56:45;7.85;;;6.22;;
69678;SDS011;56915;52.046;4.854;2022-08-14T08:59:24;8.07;;;6.73;;
69678;SDS011;56915;52.046;4.854;2022-08-14T09:01:58;8.75;;;6.60;;
69678;SDS011;56915;52.046;4.854;2022-08-14T09:04:39;6.53;;;5.93;;
69678;SDS011;56915;52.046;4.854;2022-08-14T09:07:18;7.70;;;6.20;;
69678;SDS011;56915;52.046;4.854;2022-08-14T09:09:52;8.70;;;5.93;;
69678;SDS011;56915;52.046;4.854;2022-08-14T09:12:27;8.63;;;6.87;;
69678;SDS011;56915;52.046;4.854;2022-08-14T09:15:02;8.88;;;7.32;;
69678;SDS011;56915;52.046;4.854;2022-08-14T09:17:37;7.50;;;6.70;;
69678;SDS011;56915;52.046;4.854;2022-08-14T09:20:07;7.93;;;6.65;;
69678;SDS011;56915;52.046;4.854;2022-08-14T09:22:37;10.25;;;6.65;;
69678;SDS011;56915;52.046;4.854;2022-08-14T09:25:14;8.30;;;6.40;;
69678;SDS011;56915;52.046;4.854;2022-08-14T09:28:04;7.63;;;6.03;;
69678;SDS011;56915;52.046;4.854;2022-08-14T09:30:35;8.43;;;6.38;;
69678;SDS011;56915;52.046;4.854;2022-08-14T09:33:19;7.13;;;6.10;;
69678;SDS011;56915;52.046;4.854;2022-08-14T09:39:22;8.27;;;6.17;;
69678;SDS011;56915;52.046;4.854;2022-08-14T09:45:19;6.70;;;5.97;;
69678;SDS011;56915;52.046;4.854;2022-08-14T09:47:56;6.38;;;5.78;;
69678;SDS011;56915;52.046;4.854;2022-08-14T09:50:27;7.28;;;6.20;;
69678;SDS011;56915;52.046;4.854;2022-08-14T09:55:30;7.00;;;6.30;;
69678;SDS011;56915;52.046;4.854;2022-08-14T09:58:14;8.77;;;5.57;;
69678;SDS011;56915;52.046;4.854;2022-08-14T10:00:52;9.13;;;5.85;;
69678;SDS011;56915;52.046;4.854;2022-08-14T10:06:10;6.30;;;5.67;;
69678;SDS011;56915;52.046;4.854;2022-08-14T10:11:21;6.78;;;6.18;;
69678;SDS011;56915;52.046;4.854;2022-08-14T10:14:16;6.15;;;5.55;;
69678;SDS011;56915;52.046;4.854;2022-08-14T10:17:00;6.72;;;5.95;;
69678;SDS011;56915;52.046;4.854;2022-08-14T10:19:30;7.27;;;5.67;;
69678;SDS011;56915;52.046;4.854;2022-08-14T10:22:08;6.68;;;5.70;;
69678;SDS011;56915;52.046;4.854;2022-08-14T10:24:57;6.90;;;6.20;;
69678;SDS011;56915;52.046;4.854;2022-08-14T10:27:40;6.32;;;5.57;;
69678;SDS011;56915;52.046;4.854;2022-08-14T10:30:13;6.38;;;5.68;;
69678;SDS011;56915;52.046;4.854;2022-08-14T10:32:48;6.70;;;6.07;;
69678;SDS011;56915;52.046;4.854;2022-08-14T10:35:17;6.38;;;5.78;;
69678;SDS011;56915;52.046;4.854;2022-08-14T10:37:49;6.85;;;5.90;;
69678;SDS011;56915;52.046;4.854;2022-08-14T10:40:27;11.60;;;5.88;;
69678;SDS011;56915;52.046;4.854;2022-08-14T10:43:19;6.93;;;5.43;;
69678;SDS011;56915;52.046;4.854;2022-08-14T10:45:57;6.73;;;5.63;;
69678;SDS011;56915;52.046;4.854;2022-08-14T10:48:57;7.57;;;5.60;;
69678;SDS011;56915;52.046;4.854;2022-08-14T10:51:33;6.32;;;5.40;;
69678;SDS011;56915;52.046;4.854;2022-08-14T10:54:07;6.13;;;5.53;;
69678;SDS011;56915;52.046;4.854;2022-08-14T10:56:56;6.53;;;5.82;;
69678;SDS011;56915;52.046;4.854;2022-08-14T10:59:45;7.97;;;5.50;;
69678;SDS011;56915;52.046;4.854;2022-08-14T11:02:32;6.25;;;5.65;;
69678;SDS011;56915;52.046;4.854;2022-08-14T11:05:19;6.00;;;5.40;;
69678;SDS011;56915;52.046;4.854;2022-08-14T11:13:18;4.63;;;4.00;;
69678;SDS011;56915;52.046;4.854;2022-08-14T11:15:49;6.05;;;4.50;;
69678;SDS011;56915;52.046;4.854;2022-08-14T11:18:18;4.30;;;4.00;;
69678;SDS011;56915;52.046;4.854;2022-08-14T11:21:01;5.15;;;4.20;;
69678;SDS011;56915;52.046;4.854;2022-08-14T11:23:29;4.45;;;4.05;;
69678;SDS011;56915;52.046;4.854;2022-08-14T11:26:05;4.43;;;3.93;;
69678;SDS011;56915;52.046;4.854;2022-08-14T11:28:34;5.78;;;4.13;;
69678;SDS011;56915;52.046;4.854;2022-08-14T11:31:14;5.93;;;4.55;;
69678;SDS011;56915;52.046;4.854;2022-08-14T11:33:52;4.60;;;4.20;;
69678;SDS011;56915;52.046;4.854;2022-08-14T11:36:25;5.00;;;4.53;;
69678;SDS011;56915;52.046;4.854;2022-08-14T11:39:17;4.33;;;3.93;;
69678;SDS011;56915;52.046;4.854;2022-08-14T11:42:04;5.10;;;4.30;;
69678;SDS011;56915;52.046;4.854;2022-08-14T11:44:57;3.92;;;3.63;;
69678;SDS011;56915;52.046;4.854;2022-08-14T11:47:26;5.32;;;3.90;;
69678;SDS011;56915;52.046;4.854;2022-08-14T11:50:15;4.22;;;3.83;;
69678;SDS011;56915;52.046;4.854;2022-08-14T11:53:02;4.50;;;4.10;;
69678;SDS011;56915;52.046;4.854;2022-08-14T11:55:33;4.65;;;4.10;;
69678;SDS011;56915;52.046;4.854;2022-08-14T11:58:09;4.72;;;4.30;;
69678;SDS011;56915;52.046;4.854;2022-08-14T12:00:51;4.80;;;4.40;;
69678;SDS011;56915;52.046;4.854;2022-08-14T12:03:20;5.72;;;4.60;;
69678;SDS011;56915;52.046;4.854;2022-08-14T12:06:09;5.43;;;4.93;;
69678;SDS011;56915;52.046;4.854;2022-08-14T12:08:57;4.70;;;4.30;;
69678;SDS011;56915;52.046;4.854;2022-08-14T12:11:35;5.35;;;4.95;;
69678;SDS011;56915;52.046;4.854;2022-08-14T12:14:11;5.72;;;5.07;;
69678;SDS011;56915;52.046;4.854;2022-08-14T12:17:04;5.68;;;4.75;;
69678;SDS011;56915;52.046;4.854;2022-08-14T12:22:43;5.47;;;4.97;;
69678;SDS011;56915;52.046;4.854;2022-08-14T12:25:20;5.10;;;4.60;;
69678;SDS011;56915;52.046;4.854;2022-08-14T12:27:51;4.90;;;4.38;;
69678;SDS011;56915;52.046;4.854;2022-08-14T12:30:34;7.20;;;4.80;;
69678;SDS011;56915;52.046;4.854;2022-08-14T12:33:22;5.17;;;4.67;;
69678;SDS011;56915;52.046;4.854;2022-08-14T12:36:00;5.32;;;4.50;;
69678;SDS011;56915;52.046;4.854;2022-08-14T12:38:31;5.20;;;4.70;;
69678;SDS011;56915;52.046;4.854;2022-08-14T12:41:08;4.80;;;4.40;;
69678;SDS011;56915;52.046;4.854;2022-08-14T12:43:50;4.70;;;4.30;;
69678;SDS011;56915;52.046;4.854;2022-08-14T12:46:28;4.00;;;3.70;;
69678;SDS011;56915;52.046;4.854;2022-08-14T12:48:57;5.57;;;4.18;;
69678;SDS011;56915;52.046;4.854;2022-08-14T12:51:41;4.95;;;4.32;;
69678;SDS011;56915;52.046;4.854;2022-08-14T12:54:16;5.63;;;5.13;;
69678;SDS011;56915;52.046;4.854;2022-08-14T12:59:30;4.87;;;4.47;;
69678;SDS011;56915;52.046;4.854;2022-08-14T13:02:29;4.28;;;3.90;;
69678;SDS011;56915;52.046;4.854;2022-08-14T13:05:02;4.70;;;4.30;;
69678;SDS011;56915;52.046;4.854;2022-08-14T13:07:41;4.72;;;4.22;;
69678;SDS011;56915;52.046;4.854;2022-08-14T13:10:11;4.25;;;3.92;;
69678;SDS011;56915;52.046;4.854;2022-08-14T13:13:01;5.13;;;4.73;;
69678;SDS011;56915;52.046;4.854;2022-08-14T13:15:41;5.10;;;4.70;;
69678;SDS011;56915;52.046;4.854;2022-08-14T13:18:21;4.95;;;4.50;;
69678;SDS011;56915;52.046;4.854;2022-08-14T13:20:52;4.95;;;4.55;;
69678;SDS011;56915;52.046;4.854;2022-08-14T13:23:26;4.90;;;4.35;;
69678;SDS011;56915;52.046;4.854;2022-08-14T13:26:01;5.03;;;4.63;;
69678;SDS011;56915;52.046;4.854;2022-08-14T13:28:29;4.97;;;4.57;;
69678;SDS011;56915;52.046;4.854;2022-08-14T13:30:59;6.10;;;5.18;;
69678;SDS011;56915;52.046;4.854;2022-08-14T13:33:37;5.22;;;4.70;;
69678;SDS011;56915;52.046;4.854;2022-08-14T13:36:06;5.15;;;4.72;;
69678;SDS011;56915;52.046;4.854;2022-08-14T13:38:34;5.00;;;4.50;;
69678;SDS011;56915;52.046;4.854;2022-08-14T13:41:05;5.05;;;4.63;;
69678;SDS011;56915;52.046;4.854;2022-08-14T13:43:33;5.55;;;4.70;;
69678;SDS011;56915;52.046;4.854;2022-08-14T13:46:26;5.55;;;5.00;;
69678;SDS011;56915;52.046;4.854;2022-08-14T13:48:55;5.18;;;4.78;;
69678;SDS011;56915;52.046;4.854;2022-08-14T13:51:27;6.73;;;5.00;;
69678;SDS011;56915;52.046;4.854;2022-08-14T13:54:00;5.20;;;4.70;;
69678;SDS011;56915;52.046;4.854;2022-08-14T13:59:34;5.07;;;4.50;;
69678;SDS011;56915;52.046;4.854;2022-08-14T14:02:04;5.20;;;4.80;;
69678;SDS011;56915;52.046;4.854;2022-08-14T14:04:34;4.90;;;4.50;;
69678;SDS011;56915;52.046;4.854;2022-08-14T14:07:05;5.75;;;5.28;;
69678;SDS011;56915;52.046;4.854;2022-08-14T14:09:44;5.18;;;4.78;;
69678;SDS011;56915;52.046;4.854;2022-08-14T14:12:18;5.00;;;4.60;;
69678;SDS011;56915;52.046;4.854;2022-08-14T14:15:07;5.63;;;4.88;;
69678;SDS011;56915;52.046;4.854;2022-08-14T14:17:42;5.53;;;5.03;;
69678;SDS011;56915;52.046;4.854;2022-08-14T14:20:12;5.78;;;5.20;;
69678;SDS011;56915;52.046;4.854;2022-08-14T14:23:00;5.72;;;5.22;;
69678;SDS011;56915;52.046;4.854;2022-08-14T14:25:41;5.25;;;4.82;;
69678;SDS011;56915;52.046;4.854;2022-08-14T14:28:22;8.23;;;5.00;;
69678;SDS011;56915;52.046;4.854;2022-08-14T14:30:59;6.33;;;5.40;;
69678;SDS011;56915;52.046;4.854;2022-08-14T14:33:40;5.30;;;4.80;;
69678;SDS011;56915;52.046;4.854;2022-08-14T14:36:21;5.25;;;4.82;;
69678;SDS011;56915;52.046;4.854;2022-08-14T14:38:53;5.40;;;5.00;;
69678;SDS011;56915;52.046;4.854;2022-08-14T14:41:27;6.13;;;5.53;;
69678;SDS011;56915;52.046;4.854;2022-08-14T14:44:07;6.00;;;5.50;;
69678;SDS011;56915;52.046;4.854;2022-08-14T14:46:42;5.20;;;4.70;;
69678;SDS011;56915;52.046;4.854;2022-08-14T14:49:19;5.80;;;5.30;;
69678;SDS011;56915;52.046;4.854;2022-08-14T14:52:07;5.88;;;5.28;;
69678;SDS011;56915;52.046;4.854;2022-08-14T14:54:51;5.65;;;5.20;;
69678;SDS011;56915;52.046;4.854;2022-08-14T14:57:19;5.50;;;5.00;;
69678;SDS011;56915;52.046;4.854;2022-08-14T14:59:46;5.65;;;5.18;;
69678;SDS011;56915;52.046;4.854;2022-08-14T15:02:25;5.40;;;5.00;;
69678;SDS011;56915;52.046;4.854;2022-08-14T15:05:03;5.47;;;4.97;;
69678;SDS011;56915;52.046;4.854;2022-08-14T15:07:31;5.50;;;5.00;;
69678;SDS011;56915;52.046;4.854;2022-08-14T15:09:58;5.87;;;5.33;;
69678;SDS011;56915;52.046;4.854;2022-08-14T15:12:26;6.85;;;5.82;;
69678;SDS011;56915;52.046;4.854;2022-08-14T15:15:13;5.60;;;5.20;;
69678;SDS011;56915;52.046;4.854;2022-08-14T15:17:41;5.88;;;5.28;;
69678;SDS011;56915;52.046;4.854;2022-08-14T15:20:09;5.88;;;5.45;;
69678;SDS011;56915;52.046;4.854;2022-08-14T15:22:55;5.70;;;5.30;;
69678;SDS011;56915;52.046;4.854;2022-08-14T15:25:22;6.82;;;6.22;;
69678;SDS011;56915;52.046;4.854;2022-08-14T15:27:49;6.30;;;5.80;;
69678;SDS011;56915;52.046;4.854;2022-08-14T15:30:20;6.30;;;5.80;;
69678;SDS011;56915;52.046;4.854;2022-08-14T15:32:49;6.13;;;5.53;;
69678;SDS011;56915;52.046;4.854;2022-08-14T15:35:20;5.90;;;5.40;;
69678;SDS011;56915;52.046;4.854;2022-08-14T15:37:50;6.03;;;5.53;;
69678;SDS011;56915;52.046;4.854;2022-08-14T15:40:21;5.65;;;5.15;;
69678;SDS011;56915;52.046;4.854;2022-08-14T15:42:48;5.72;;;5.28;;
69678;SDS011;56915;52.046;4.854;2022-08-14T15:45:15;5.75;;;5.22;;
69678;SDS011;56915;52.046;4.854;2022-08-14T15:47:42;5.87;;;5.37;;
69678;SDS011;56915;52.046;4.854;2022-08-14T15:50:09;8.10;;;5.90;;
69678;SDS011;56915;52.046;4.854;2022-08-14T15:52:38;6.40;;;5.80;;
69678;SDS011;56915;52.046;4.854;2022-08-14T15:55:10;6.57;;;6.05;;
69678;SDS011;56915;52.046;4.854;2022-08-14T15:57:40;6.13;;;5.65;;
69678;SDS011;56915;52.046;4.854;2022-08-14T16:00:30;6.50;;;5.90;;
69678;SDS011;56915;52.046;4.854;2022-08-14T16:03:20;5.88;;;5.47;;
69678;SDS011;56915;52.046;4.854;2022-08-14T16:06:00;6.25;;;5.68;;